createdAt,value
2019-03-24T00:01:24.657Z,99.90
2019-03-24T00:06:25.025Z,99.90
2019-03-24T00:08:55.111Z,99.90
2019-03-24T00:11:25.237Z,99.90
2019-03-24T00:13:55.302Z,99.90
2019-03-24T00:18:55.009Z,99.90
2019-03-24T00:21:25.075Z,99.90
2019-03-24T00:23:56.502Z,99.90
2019-03-24T00:26:26.593Z,99.90
2019-03-24T00:28:56.714Z,99.90
2019-03-24T00:31:26.793Z,99.90
2019-03-24T00:33:56.876Z,99.90
2019-03-24T00:38:56.401Z,99.90
2019-03-24T00:46:25.266Z,99.90
2019-03-24T00:51:24.909Z,99.90
2019-03-24T00:53:54.981Z,99.90
2019-03-24T00:56:25.096Z,99.90
2019-03-24T00:58:55.173Z,99.90
2019-03-24T01:01:25.254Z,99.90
2019-03-24T01:06:24.891Z,99.90
2019-03-24T01:08:54.966Z,99.90
2019-03-24T01:11:25.053Z,99.90
2019-03-24T01:13:55.201Z,99.90
2019-03-24T01:16:25.310Z,99.90
2019-03-24T01:18:55.832Z,99.90
2019-03-24T01:23:55.070Z,99.90
2019-03-24T01:26:26.432Z,99.90
2019-03-24T01:28:56.495Z,99.90
2019-03-24T01:31:26.575Z,99.90
2019-03-24T01:33:57.030Z,99.90
2019-03-24T01:36:27.093Z,99.90
2019-03-24T01:41:26.709Z,99.90
2019-03-24T01:43:56.777Z,99.90
2019-03-24T01:46:26.841Z,99.90
2019-03-24T01:48:56.938Z,99.90
2019-03-24T01:51:27.026Z,99.90
2019-03-24T01:53:57.474Z,99.90
2019-03-24T01:56:27.581Z,99.90
2019-03-24T02:01:26.781Z,99.90
2019-03-24T02:03:57.017Z,99.90
2019-03-24T02:06:27.502Z,99.90
2019-03-24T02:08:57.614Z,99.90
2019-03-24T02:18:55.878Z,99.90
2019-03-24T02:21:26.425Z,99.90
2019-03-24T02:23:56.497Z,99.90
2019-03-24T02:26:26.597Z,99.90
2019-03-24T02:31:26.311Z,99.90
2019-03-24T02:36:26.215Z,99.90
2019-03-24T02:38:56.305Z,99.90
2019-03-24T02:41:26.405Z,99.90
2019-03-24T02:46:26.087Z,99.90
2019-03-24T02:48:56.174Z,99.90
2019-03-24T02:51:26.535Z,99.90
2019-03-24T02:53:56.707Z,99.90
2019-03-24T02:56:26.875Z,99.90
2019-03-24T02:58:56.935Z,99.90
2019-03-24T03:03:56.541Z,99.90
2019-03-24T03:06:26.643Z,99.90
2019-03-24T03:08:57.157Z,99.90
2019-03-24T03:11:27.264Z,99.90
2019-03-24T03:13:57.334Z,99.90
2019-03-24T03:16:37.779Z,99.90
2019-03-24T03:18:59.465Z,99.90
2019-03-24T03:21:29.562Z,99.90
2019-03-24T03:26:28.810Z,99.90
2019-03-24T03:28:59.339Z,99.90
2019-03-24T03:31:30.306Z,99.90
2019-03-24T03:34:00.419Z,99.90
2019-03-24T03:36:30.496Z,99.90
2019-03-24T03:39:00.559Z,99.90
2019-03-24T03:41:30.762Z,99.90
2019-03-24T03:46:30.008Z,99.90
2019-03-24T03:49:00.095Z,99.90
2019-03-24T03:51:30.620Z,99.90
2019-03-24T03:54:00.712Z,99.90
2019-03-24T03:56:30.815Z,99.90
2019-03-24T04:03:59.639Z,99.90
2019-03-24T04:06:30.097Z,99.90
2019-03-24T04:09:00.171Z,99.90
2019-03-24T04:11:30.251Z,99.90
2019-03-24T04:16:29.768Z,99.90
2019-03-24T04:19:00.315Z,99.90
2019-03-24T04:21:30.379Z,99.90
2019-03-24T04:24:00.443Z,99.90
2019-03-24T04:26:30.932Z,99.90
2019-03-24T04:29:00.991Z,99.90
2019-03-24T04:34:01.108Z,99.90
2019-03-24T04:36:31.179Z,99.90
2019-03-24T04:39:01.660Z,99.90
2019-03-24T04:41:31.755Z,99.90
2019-03-24T04:44:01.820Z,99.90
2019-03-24T04:46:32.207Z,99.90
2019-03-24T04:49:02.296Z,99.90
2019-03-24T04:54:01.959Z,99.90
2019-03-24T04:56:32.061Z,99.90
2019-03-24T04:59:02.122Z,99.90
2019-03-24T05:01:32.532Z,99.90
2019-03-24T05:04:02.613Z,99.90
2019-03-24T05:09:02.774Z,99.90
2019-03-24T05:14:01.998Z,99.90
2019-03-24T05:16:32.409Z,99.90
2019-03-24T05:19:02.509Z,99.90
2019-03-24T05:24:02.160Z,99.90
2019-03-24T05:29:01.433Z,99.90
2019-03-24T05:31:31.925Z,99.90
2019-03-24T05:34:02.004Z,99.90
2019-03-24T05:39:02.087Z,99.90
2019-03-24T05:41:32.180Z,99.90
2019-03-24T05:44:02.707Z,99.90
2019-03-24T05:46:32.783Z,99.90
2019-03-24T05:49:02.870Z,99.90
2019-03-24T05:51:32.933Z,99.90
2019-03-24T05:56:32.505Z,99.90
2019-03-24T06:01:31.796Z,99.90
2019-03-24T06:04:01.891Z,99.90
2019-03-24T06:09:01.436Z,99.90
2019-03-24T06:11:31.528Z,99.90
2019-03-24T06:14:01.612Z,99.90
2019-03-24T06:16:31.994Z,99.90
2019-03-24T06:19:02.109Z,99.90
2019-03-24T06:24:01.741Z,99.90
2019-03-24T06:26:31.863Z,99.90
2019-03-24T06:29:01.925Z,99.90
2019-03-24T06:31:32.289Z,99.90
2019-03-24T06:34:02.402Z,99.90
2019-03-24T06:36:32.462Z,99.90
2019-03-24T06:44:02.817Z,99.90
2019-03-24T06:46:33.226Z,99.90
2019-03-24T06:49:03.335Z,99.90
2019-03-24T06:54:02.859Z,99.90
2019-03-24T06:56:32.959Z,99.90
2019-03-24T06:59:03.028Z,99.90
2019-03-24T07:01:33.542Z,99.90
2019-03-24T07:04:03.681Z,99.90
2019-03-24T07:06:34.774Z,99.90
2019-03-24T07:09:07.065Z,99.90
2019-03-24T07:11:37.255Z,99.90
2019-03-24T07:19:06.146Z,99.90
2019-03-24T07:21:37.187Z,99.90
2019-03-24T07:24:07.756Z,99.90
2019-03-24T07:31:38.053Z,99.90
2019-03-24T07:36:37.795Z,99.90
2019-03-24T07:39:08.613Z,99.90
2019-03-24T07:44:08.980Z,99.90
2019-03-24T07:46:39.837Z,99.90
2019-03-24T07:49:10.105Z,99.90
2019-03-24T08:01:43.895Z,99.90
2019-03-24T08:09:13.262Z,99.90
2019-03-24T08:11:43.467Z,99.90
2019-03-24T08:14:13.727Z,99.90
2019-03-24T08:16:45.899Z,99.90
2019-03-24T08:21:45.366Z,99.90
2019-03-24T08:26:45.917Z,99.90
2019-03-24T08:29:16.006Z,99.90
2019-03-24T08:34:15.538Z,99.90
2019-03-24T08:36:45.613Z,99.90
2019-03-24T08:39:16.090Z,99.90
2019-03-24T08:41:46.167Z,99.90
2019-03-24T08:51:46.366Z,99.90
2019-03-24T08:54:16.737Z,99.90
2019-03-24T08:56:47.062Z,99.90
2019-03-24T08:59:17.126Z,99.90
2019-03-24T09:01:48.618Z,99.90
2019-03-24T09:04:18.683Z,99.90
2019-03-24T09:06:48.757Z,99.90
2019-03-24T09:11:48.294Z,99.90
2019-03-24T09:14:18.358Z,99.90
2019-03-24T09:16:48.478Z,99.90
2019-03-24T09:19:18.530Z,99.90
2019-03-24T09:21:48.607Z,99.90
2019-03-24T09:26:48.145Z,99.90
2019-03-24T09:29:18.230Z,99.90
2019-03-24T09:31:48.371Z,99.90
2019-03-24T09:34:18.724Z,99.90
2019-03-24T09:39:18.007Z,99.90
2019-03-24T09:41:48.350Z,99.90
2019-03-24T09:44:18.425Z,99.90
2019-03-24T09:46:50.228Z,99.90
2019-03-24T09:49:20.877Z,99.90
2019-03-24T09:51:51.128Z,99.90
2019-03-24T09:54:22.364Z,99.90
2019-03-24T09:56:52.873Z,99.90
2019-03-24T09:59:22.956Z,99.90
2019-03-24T10:04:23.511Z,99.90
2019-03-24T10:06:53.625Z,99.90
2019-03-24T10:09:23.919Z,99.90
2019-03-24T10:11:54.900Z,99.90
2019-03-24T10:14:25.137Z,99.90
2019-03-24T10:16:55.783Z,99.90
2019-03-24T10:19:26.437Z,99.90
2019-03-24T10:24:28.182Z,99.90
2019-03-24T10:29:27.849Z,99.90
2019-03-24T10:31:57.965Z,99.90
2019-03-24T10:34:28.342Z,99.90
2019-03-24T10:36:58.432Z,99.90
2019-03-24T10:41:57.961Z,99.90
2019-03-24T10:46:57.237Z,99.90
2019-03-24T10:54:26.149Z,99.90
2019-03-24T10:56:56.500Z,99.90
2019-03-24T10:59:26.558Z,99.90
2019-03-24T11:01:56.685Z,99.90
2019-03-24T11:04:27.041Z,99.90
2019-03-24T11:09:26.312Z,99.90
2019-03-24T11:11:56.820Z,99.90
2019-03-24T11:14:27.880Z,99.90
2019-03-24T11:16:58.178Z,99.90
2019-03-24T11:19:35.625Z,99.90
2019-03-24T11:22:00.379Z,99.90
2019-03-24T11:24:30.505Z,99.90
2019-03-24T11:27:01.049Z,99.90
2019-03-24T11:29:31.172Z,99.90
2019-03-24T11:34:30.725Z,99.90
2019-03-24T11:37:00.933Z,99.90
2019-03-24T11:39:31.077Z,99.90
2019-03-24T11:42:01.738Z,99.90
2019-03-24T11:44:31.839Z,99.90
2019-03-24T11:49:31.367Z,99.90
2019-03-24T11:54:32.277Z,99.90
2019-03-24T11:57:02.675Z,99.90
2019-03-24T11:59:33.620Z,99.90
2019-03-24T12:04:33.247Z,99.90
2019-03-24T12:07:04.317Z,99.90
2019-03-24T12:09:34.476Z,99.90
2019-03-24T12:17:03.280Z,99.90
2019-03-24T12:19:33.691Z,99.90
2019-03-24T12:22:03.824Z,99.90
2019-03-24T12:24:34.295Z,99.90
2019-03-24T12:27:04.650Z,99.90
2019-03-24T12:29:36.966Z,99.90
2019-03-24T12:32:06.737Z,99.90
2019-03-24T12:34:37.124Z,99.90
2019-03-24T12:37:07.232Z,99.90
2019-03-24T12:42:07.004Z,99.90
2019-03-24T12:44:37.335Z,99.90
2019-03-24T12:47:07.637Z,99.90
2019-03-24T12:49:39.749Z,99.90
2019-03-24T12:52:09.865Z,99.90
2019-03-24T12:54:41.087Z,99.90
2019-03-24T12:57:11.509Z,99.90
2019-03-24T12:59:41.651Z,99.90
2019-03-24T13:02:11.786Z,99.90
2019-03-24T13:04:43.523Z,99.90
2019-03-24T13:07:13.638Z,99.90
2019-03-24T13:09:43.767Z,99.90
2019-03-24T13:14:43.760Z,99.90
2019-03-24T13:19:43.147Z,99.90
2019-03-24T13:24:45.157Z,99.90
2019-03-24T13:27:15.298Z,99.90
2019-03-24T13:29:45.503Z,99.90
2019-03-24T13:37:14.873Z,99.90
2019-03-24T13:39:45.024Z,99.90
2019-03-24T13:42:15.153Z,99.90
2019-03-24T13:47:14.997Z,99.90
2019-03-24T13:54:44.087Z,99.90
2019-03-24T13:57:16.290Z,99.90
2019-03-24T13:59:47.689Z,99.90
2019-03-24T14:02:18.592Z,99.90
2019-03-24T14:07:27.086Z,99.90
2019-03-24T14:12:26.795Z,99.90
2019-03-24T14:14:57.291Z,99.90
2019-03-24T14:19:57.184Z,99.90
2019-03-24T14:22:28.337Z,99.90
2019-03-24T14:25:00.825Z,99.90
2019-03-24T14:27:31.411Z,99.90
2019-03-24T14:30:01.972Z,99.90
2019-03-24T14:32:34.312Z,99.90
2019-03-24T14:45:07.999Z,99.90
2019-03-24T14:47:38.470Z,99.90
2019-03-24T14:50:09.447Z,99.90
2019-03-24T14:52:41.857Z,99.90
2019-03-24T14:55:17.193Z,99.90
2019-03-24T14:57:48.471Z,99.90
2019-03-24T15:00:22.577Z,99.90
2019-03-24T15:07:51.373Z,99.90
2019-03-24T15:15:22.337Z,99.90
2019-03-24T15:22:51.327Z,99.90
2019-03-24T15:30:22.772Z,99.60
2019-03-24T15:32:53.566Z,99.90
2019-03-24T15:35:24.199Z,99.90
2019-03-24T15:38:07.786Z,99.10
2019-03-24T15:47:59.352Z,97.10
2019-03-24T15:50:29.622Z,97.70
2019-03-24T15:52:59.870Z,98.30
2019-03-24T15:55:30.098Z,98.40
2019-03-24T15:58:00.307Z,98.40
2019-03-24T16:06:02.055Z,97.30
2019-03-24T16:08:32.314Z,97.10
2019-03-24T16:11:03.484Z,94.70
2019-03-24T16:18:32.785Z,95.40
2019-03-24T16:23:32.167Z,97.90
2019-03-24T16:26:02.428Z,98.60
2019-03-24T16:28:41.713Z,97.50
2019-03-24T16:31:12.118Z,97.40
2019-03-24T16:33:42.237Z,98.30
2019-03-24T16:36:12.362Z,98.60
2019-03-24T16:43:42.709Z,99.90
2019-03-24T16:46:13.279Z,99.80
2019-03-24T16:51:12.537Z,99.50
2019-03-24T16:53:42.939Z,99.30
2019-03-24T16:58:45.749Z,99.90
2019-03-24T17:01:17.067Z,99.90
2019-03-24T17:08:46.562Z,99.90
2019-03-24T17:13:46.199Z,99.90
2019-03-24T17:16:16.755Z,99.90
2019-03-24T17:18:47.238Z,99.90
2019-03-24T17:21:17.358Z,99.90
2019-03-24T17:26:16.905Z,99.40
2019-03-24T17:28:47.156Z,99.10
2019-03-24T17:31:24.854Z,98.10
2019-03-24T17:38:53.490Z,97.90
2019-03-24T17:41:23.666Z,98.50
2019-03-24T17:44:02.829Z,98.90
2019-03-24T17:46:25.961Z,98.90
2019-03-24T17:48:56.163Z,98.90
2019-03-24T17:51:26.700Z,99.20
2019-03-24T17:53:56.821Z,99.90
2019-03-24T17:58:56.413Z,99.90
2019-03-24T18:01:32.745Z,99.90
2019-03-24T18:04:03.747Z,99.90
2019-03-24T18:06:33.970Z,99.90
2019-03-24T18:09:05.256Z,99.90
2019-03-24T18:11:35.393Z,99.90
2019-03-24T18:14:05.510Z,99.90
2019-03-24T18:16:35.621Z,99.90
2019-03-24T18:21:35.214Z,99.90
2019-03-24T18:24:05.398Z,99.90
2019-03-24T18:29:05.614Z,99.90
2019-03-24T18:39:05.029Z,99.90
2019-03-24T18:41:35.133Z,99.90
2019-03-24T18:46:34.603Z,99.90
2019-03-24T18:59:04.655Z,99.90
2019-03-24T19:01:36.785Z,99.90
2019-03-24T19:09:09.785Z,99.90
2019-03-24T19:11:42.126Z,99.90
2019-03-24T19:14:12.302Z,99.90
2019-03-24T19:16:42.435Z,99.90
2019-03-24T19:19:12.549Z,99.90
2019-03-24T19:21:42.937Z,99.90
2019-03-24T19:26:42.253Z,99.90
2019-03-24T19:29:12.374Z,99.90
2019-03-24T19:31:42.724Z,99.90
2019-03-24T19:39:14.650Z,99.90
2019-03-24T19:51:45.519Z,99.90
2019-03-24T19:54:16.926Z,99.90
2019-03-24T19:59:18.434Z,99.90
2019-03-24T20:01:49.126Z,99.90
2019-03-24T20:04:21.596Z,99.90
2019-03-24T20:06:51.726Z,99.90
2019-03-24T20:09:22.748Z,99.90
2019-03-24T20:11:52.935Z,99.90
2019-03-24T20:14:24.105Z,99.90
2019-03-24T20:16:54.504Z,99.90
2019-03-24T20:26:54.074Z,99.90
2019-03-24T20:29:26.404Z,99.90
2019-03-24T20:31:56.969Z,99.90
2019-03-24T20:34:27.590Z,99.90
2019-03-24T20:36:58.958Z,99.90
2019-03-24T20:39:34.059Z,99.90
2019-03-24T20:47:04.619Z,99.90
2019-03-24T20:49:34.671Z,99.90
2019-03-24T20:52:04.801Z,99.90
2019-03-24T21:04:29.678Z,99.90
2019-03-24T21:06:59.809Z,99.90
2019-03-24T21:09:29.889Z,99.90
2019-03-24T21:12:00.854Z,99.90
2019-03-24T21:14:31.131Z,99.90
2019-03-24T21:19:30.791Z,99.90
2019-03-24T21:22:01.186Z,99.90
2019-03-24T21:24:31.451Z,99.90
2019-03-24T21:27:01.692Z,99.90
2019-03-24T21:34:30.652Z,99.90
2019-03-24T21:37:01.142Z,99.90
2019-03-24T21:39:31.291Z,99.90
2019-03-24T21:42:01.419Z,99.90
2019-03-24T21:44:33.739Z,99.90
2019-03-24T21:47:03.829Z,99.90
2019-03-24T21:49:33.948Z,99.90
2019-03-24T21:54:33.649Z,99.90
2019-03-24T21:57:03.737Z,99.90
2019-03-24T21:59:33.906Z,99.90
2019-03-24T22:02:04.058Z,99.90
2019-03-24T22:04:34.120Z,99.90
2019-03-24T22:09:33.471Z,99.90
2019-03-24T22:12:03.793Z,99.90
2019-03-24T22:14:34.791Z,99.90
2019-03-24T22:17:04.892Z,99.90
2019-03-24T22:19:35.005Z,99.90
2019-03-24T22:24:34.353Z,99.90
2019-03-24T22:27:04.449Z,99.90
2019-03-24T22:29:34.867Z,99.90
2019-03-24T22:32:05.022Z,99.90
2019-03-24T22:34:35.114Z,99.90
2019-03-24T22:44:34.950Z,99.90
2019-03-24T22:47:05.037Z,99.90
2019-03-24T22:49:35.133Z,99.90
2019-03-24T22:57:05.635Z,99.90
2019-03-24T22:59:36.094Z,99.90
2019-03-24T23:02:06.245Z,99.90
2019-03-24T23:04:36.326Z,99.90
2019-03-24T23:07:06.539Z,99.90
2019-03-24T23:12:05.956Z,99.90
2019-03-24T23:17:06.340Z,99.90
2019-03-24T23:19:36.433Z,99.90
2019-03-24T23:22:06.830Z,99.90
2019-03-24T23:27:06.401Z,99.90
2019-03-24T23:29:36.590Z,99.90
2019-03-24T23:32:06.686Z,99.90
2019-03-24T23:34:36.772Z,99.90
2019-03-24T23:39:36.367Z,99.90
2019-03-24T23:44:38.536Z,99.90
2019-03-24T23:47:08.593Z,99.90
2019-03-24T23:49:39.689Z,99.90
2019-03-24T23:54:39.465Z,99.90
2019-03-24T23:57:09.588Z,99.90
